ASA6532 KMKG-KDTW
Flight info
| Callsign | ASA6532 |
|---|---|
| Flight time | 0h 33m |
| Altitude | 19000 |
| Route | DUUDA RKCTY2 |
| Aircraft | B738/M-SDE2E3FGHIRWXY/LB1 |
Departure
| Time | 2026-05-06 17:39 |
|---|---|
| Airport | Muskegon County Airport (KMKG) |
Arrival
| Time | 2026-05-06 18:12 |
|---|---|
| Airport | Detroit Metropolitan Wayne County Airport (KDTW) |
| Time | Latitude | Longitude | Altitude | Speed | Heading |
|---|---|---|---|---|---|
| 2026-05-06 17:07 | 43.16455 | -86.23885 | 636 ft | 0 kts | 158° |
| 2026-05-06 17:32 | 43.16470 | -86.23897 | 635 ft | 3 kts | 115° |
| 2026-05-06 17:32 | 43.16472 | -86.23919 | 637 ft | 1 kts | 66° |
| 2026-05-06 17:35 | 43.16481 | -86.23902 | 641 ft | 8 kts | 47° |
| 2026-05-06 17:35 | 43.16535 | -86.23830 | 639 ft | 12 kts | 50° |
| 2026-05-06 17:36 | 43.16643 | -86.23720 | 637 ft | 10 kts | 331° |
| 2026-05-06 17:36 | 43.16702 | -86.23738 | 636 ft | 9 kts | 33° |
| 2026-05-06 17:36 | 43.16748 | -86.23658 | 633 ft | 13 kts | 56° |
| 2026-05-06 17:36 | 43.16802 | -86.23547 | 633 ft | 14 kts | 56° |
| 2026-05-06 17:37 | 43.16855 | -86.23439 | 637 ft | 13 kts | 56° |
| 2026-05-06 17:37 | 43.16905 | -86.23336 | 639 ft | 13 kts | 56° |
| 2026-05-06 17:37 | 43.16953 | -86.23236 | 639 ft | 13 kts | 57° |
| 2026-05-06 17:37 | 43.17000 | -86.23136 | 640 ft | 12 kts | 56° |
| 2026-05-06 17:38 | 43.17048 | -86.23041 | 635 ft | 12 kts | 49° |
| 2026-05-06 17:38 | 43.17112 | -86.23039 | 635 ft | 9 kts | 332° |
| 2026-05-06 17:38 | 43.17130 | -86.23109 | 638 ft | 9 kts | 242° |
| 2026-05-06 17:38 | 43.17055 | -86.23260 | 639 ft | 44 kts | 236° |
| 2026-05-06 17:39 | 43.16735 | -86.23913 | 633 ft | 118 kts | 236° |
| 2026-05-06 17:39 | 43.16176 | -86.25057 | 811 ft | 162 kts | 236° |
| 2026-05-06 17:39 | 43.15462 | -86.26414 | 1361 ft | 188 kts | 224° |
| 2026-05-06 17:39 | 43.14251 | -86.27234 | 2104 ft | 206 kts | 192° |
| 2026-05-06 17:40 | 43.12763 | -86.27032 | 2576 ft | 230 kts | 160° |
| 2026-05-06 17:40 | 43.11471 | -86.25631 | 3120 ft | 249 kts | 124° |
| 2026-05-06 17:40 | 43.10900 | -86.23361 | 3807 ft | 260 kts | 92° |
| 2026-05-06 17:40 | 43.11245 | -86.20926 | 4549 ft | 266 kts | 62° |
| 2026-05-06 17:41 | 43.12036 | -86.18641 | 5489 ft | 266 kts | 65° |
| 2026-05-06 17:41 | 43.12710 | -86.16216 | 6162 ft | 278 kts | 71° |
| 2026-05-06 17:41 | 43.13192 | -86.13593 | 6820 ft | 290 kts | 78° |
| 2026-05-06 17:41 | 43.13445 | -86.10858 | 7691 ft | 290 kts | 85° |
| 2026-05-06 17:42 | 43.13514 | -86.08075 | 8483 ft | 296 kts | 90° |
| 2026-05-06 17:42 | 43.13444 | -86.05227 | 9211 ft | 303 kts | 94° |
| 2026-05-06 17:42 | 43.13272 | -86.02325 | 9982 ft | 308 kts | 96° |
| 2026-05-06 17:42 | 43.13028 | -85.99351 | 10439 ft | 325 kts | 98° |
| 2026-05-06 17:43 | 43.12722 | -85.96193 | 10797 ft | 342 kts | 99° |
| 2026-05-06 17:43 | 43.12375 | -85.92935 | 11423 ft | 350 kts | 100° |
| 2026-05-06 17:43 | 43.12008 | -85.89660 | 12128 ft | 356 kts | 101° |
| 2026-05-06 17:43 | 43.11614 | -85.86239 | 12840 ft | 363 kts | 101° |
| 2026-05-06 17:44 | 43.11212 | -85.82801 | 13565 ft | 370 kts | 101° |
| 2026-05-06 17:44 | 43.10804 | -85.79343 | 14229 ft | 377 kts | 102° |
| 2026-05-06 17:44 | 43.10381 | -85.75780 | 14946 ft | 381 kts | 102° |
| 2026-05-06 17:44 | 43.09954 | -85.72180 | 15657 ft | 387 kts | 102° |
| 2026-05-06 17:45 | 43.09517 | -85.68517 | 16345 ft | 393 kts | 103° |
| 2026-05-06 17:45 | 43.09073 | -85.64790 | 17037 ft | 400 kts | 103° |
| 2026-05-06 17:45 | 43.08622 | -85.61014 | 17721 ft | 406 kts | 103° |
| 2026-05-06 17:45 | 43.08161 | -85.57177 | 18389 ft | 412 kts | 103° |
| 2026-05-06 17:46 | 43.07705 | -85.53281 | 18976 ft | 418 kts | 101° |
| 2026-05-06 17:46 | 43.07758 | -85.49260 | 19601 ft | 427 kts | 84° |
| 2026-05-06 17:46 | 43.08169 | -85.45241 | 20372 ft | 427 kts | 83° |
| 2026-05-06 17:46 | 43.08576 | -85.41402 | 20825 ft | 429 kts | 83° |
| 2026-05-06 17:47 | 43.08997 | -85.37358 | 21000 ft | 429 kts | 84° |
| 2026-05-06 17:47 | 43.09401 | -85.33317 | 20990 ft | 428 kts | 84° |
| 2026-05-06 17:47 | 43.09789 | -85.29305 | 20988 ft | 424 kts | 84° |
| 2026-05-06 17:47 | 43.10166 | -85.25310 | 21003 ft | 424 kts | 84° |
| 2026-05-06 17:48 | 43.10538 | -85.21302 | 21010 ft | 425 kts | 85° |
| 2026-05-06 17:48 | 43.10908 | -85.17279 | 21005 ft | 427 kts | 85° |
| 2026-05-06 17:48 | 43.11277 | -85.13246 | 21003 ft | 427 kts | 85° |
| 2026-05-06 17:48 | 43.11350 | -85.09206 | 20992 ft | 423 kts | 100° |
| 2026-05-06 17:49 | 43.10766 | -85.05311 | 21005 ft | 414 kts | 115° |
| 2026-05-06 17:49 | 43.09674 | -85.01716 | 21002 ft | 405 kts | 126° |
| 2026-05-06 17:49 | 43.08348 | -84.98317 | 21001 ft | 405 kts | 126° |
| 2026-05-06 17:49 | 43.07022 | -84.94921 | 20999 ft | 405 kts | 126° |
| 2026-05-06 17:50 | 43.05703 | -84.91523 | 20997 ft | 405 kts | 126° |
| 2026-05-06 17:50 | 43.04390 | -84.88121 | 20994 ft | 405 kts | 126° |
| 2026-05-06 17:50 | 43.03083 | -84.84717 | 21000 ft | 404 kts | 126° |
| 2026-05-06 17:50 | 43.01779 | -84.81313 | 21000 ft | 404 kts | 126° |
| 2026-05-06 17:51 | 43.00480 | -84.77919 | 21004 ft | 403 kts | 126° |
| 2026-05-06 17:51 | 42.99182 | -84.74529 | 21000 ft | 403 kts | 126° |
| 2026-05-06 17:51 | 42.97879 | -84.71127 | 21000 ft | 403 kts | 126° |
| 2026-05-06 17:51 | 42.96579 | -84.67738 | 21007 ft | 403 kts | 126° |
| 2026-05-06 17:52 | 42.95279 | -84.64355 | 21002 ft | 402 kts | 126° |
| 2026-05-06 17:52 | 42.93982 | -84.60981 | 21006 ft | 401 kts | 126° |
| 2026-05-06 17:52 | 42.92685 | -84.57611 | 21003 ft | 401 kts | 126° |
| 2026-05-06 17:52 | 42.91387 | -84.54250 | 21002 ft | 400 kts | 126° |
| 2026-05-06 17:53 | 42.90106 | -84.50933 | 21002 ft | 400 kts | 126° |
| 2026-05-06 17:53 | 42.88811 | -84.47584 | 20993 ft | 399 kts | 126° |
| 2026-05-06 17:53 | 42.87517 | -84.44238 | 20998 ft | 398 kts | 126° |
| 2026-05-06 17:53 | 42.86229 | -84.40912 | 21002 ft | 397 kts | 126° |
| 2026-05-06 17:54 | 42.84941 | -84.37590 | 21002 ft | 396 kts | 126° |
| 2026-05-06 17:54 | 42.83651 | -84.34268 | 20999 ft | 396 kts | 126° |
| 2026-05-06 17:54 | 42.82360 | -84.30947 | 20714 ft | 397 kts | 126° |
| 2026-05-06 17:54 | 42.81074 | -84.27641 | 20382 ft | 395 kts | 126° |
| 2026-05-06 17:55 | 42.79787 | -84.24334 | 19990 ft | 394 kts | 126° |
| 2026-05-06 17:55 | 42.78503 | -84.21042 | 19582 ft | 393 kts | 125° |
| 2026-05-06 17:55 | 42.77221 | -84.17757 | 19174 ft | 393 kts | 125° |
| 2026-05-06 17:55 | 42.75939 | -84.14478 | 18765 ft | 392 kts | 125° |
| 2026-05-06 17:56 | 42.74659 | -84.11206 | 18360 ft | 392 kts | 125° |
| 2026-05-06 17:56 | 42.73378 | -84.07936 | 17898 ft | 391 kts | 125° |
| 2026-05-06 17:56 | 42.72099 | -84.04671 | 17435 ft | 391 kts | 125° |
| 2026-05-06 17:56 | 42.70823 | -84.01418 | 17010 ft | 389 kts | 125° |
| 2026-05-06 17:57 | 42.69552 | -83.98184 | 16591 ft | 387 kts | 124° |
| 2026-05-06 17:57 | 42.68165 | -83.95089 | 16149 ft | 377 kts | 137° |
| 2026-05-06 17:57 | 42.66389 | -83.92528 | 15769 ft | 368 kts | 143° |
| 2026-05-06 17:57 | 42.64584 | -83.90109 | 15337 ft | 362 kts | 143° |
| 2026-05-06 17:58 | 42.62808 | -83.87727 | 14939 ft | 356 kts | 143° |
| 2026-05-06 17:58 | 42.61072 | -83.85367 | 14545 ft | 351 kts | 142° |
| 2026-05-06 17:58 | 42.59942 | -83.83816 | 14279 ft | 348 kts | 142° |
| 2026-05-06 17:58 | 42.58258 | -83.81489 | 13906 ft | 344 kts | 142° |
| 2026-05-06 17:59 | 42.56581 | -83.79165 | 13486 ft | 345 kts | 141° |
| 2026-05-06 17:59 | 42.54903 | -83.76840 | 13078 ft | 345 kts | 141° |
| 2026-05-06 17:59 | 42.53237 | -83.74501 | 12679 ft | 345 kts | 140° |
| 2026-05-06 17:59 | 42.51594 | -83.72141 | 12283 ft | 344 kts | 139° |
| 2026-05-06 18:00 | 42.49961 | -83.69781 | 11895 ft | 341 kts | 139° |
| 2026-05-06 18:00 | 42.48348 | -83.67453 | 11518 ft | 337 kts | 139° |
| 2026-05-06 18:00 | 42.46749 | -83.65149 | 11120 ft | 333 kts | 138° |
| 2026-05-06 18:00 | 42.45172 | -83.62884 | 10741 ft | 328 kts | 138° |
| 2026-05-06 18:01 | 42.43619 | -83.60658 | 10367 ft | 322 kts | 137° |
| 2026-05-06 18:01 | 42.42097 | -83.58479 | 10117 ft | 312 kts | 137° |
| 2026-05-06 18:01 | 42.40637 | -83.56387 | 9983 ft | 300 kts | 137° |
| 2026-05-06 18:01 | 42.39225 | -83.54368 | 9794 ft | 294 kts | 137° |
| 2026-05-06 18:02 | 42.37829 | -83.52378 | 9561 ft | 291 kts | 137° |
| 2026-05-06 18:02 | 42.36437 | -83.50394 | 9304 ft | 289 kts | 137° |
| 2026-05-06 18:02 | 42.35064 | -83.48436 | 9084 ft | 285 kts | 137° |
| 2026-05-06 18:02 | 42.33684 | -83.46525 | 8857 ft | 281 kts | 143° |
| 2026-05-06 18:03 | 42.32007 | -83.45373 | 8679 ft | 265 kts | 174° |
| 2026-05-06 18:03 | 42.30236 | -83.45360 | 8483 ft | 248 kts | 195° |
| 2026-05-06 18:03 | 42.28660 | -83.46099 | 8308 ft | 234 kts | 211° |
| 2026-05-06 18:03 | 42.27252 | -83.47125 | 8138 ft | 227 kts | 213° |
| 2026-05-06 18:04 | 42.25908 | -83.48157 | 7911 ft | 227 kts | 215° |
| 2026-05-06 18:04 | 42.24549 | -83.49310 | 7501 ft | 232 kts | 217° |
| 2026-05-06 18:04 | 42.23199 | -83.50561 | 7060 ft | 238 kts | 218° |
| 2026-05-06 18:04 | 42.21835 | -83.51855 | 6655 ft | 242 kts | 220° |
| 2026-05-06 18:05 | 42.20458 | -83.53200 | 6239 ft | 246 kts | 220° |
| 2026-05-06 18:05 | 42.19056 | -83.54537 | 5881 ft | 247 kts | 218° |
| 2026-05-06 18:05 | 42.17630 | -83.55838 | 5516 ft | 247 kts | 217° |
| 2026-05-06 18:05 | 42.16226 | -83.57138 | 5224 ft | 243 kts | 217° |
| 2026-05-06 18:06 | 42.14829 | -83.58363 | 5045 ft | 234 kts | 216° |
| 2026-05-06 18:06 | 42.13498 | -83.59550 | 4992 ft | 225 kts | 217° |
| 2026-05-06 18:06 | 42.12226 | -83.60723 | 4982 ft | 219 kts | 218° |
| 2026-05-06 18:06 | 42.10963 | -83.61867 | 4987 ft | 220 kts | 213° |
| 2026-05-06 18:07 | 42.09483 | -83.62383 | 4970 ft | 227 kts | 180° |
| 2026-05-06 18:07 | 42.07943 | -83.61730 | 4750 ft | 242 kts | 147° |
| 2026-05-06 18:07 | 42.06815 | -83.60041 | 4436 ft | 246 kts | 118° |
| 2026-05-06 18:07 | 42.06091 | -83.57970 | 4173 ft | 243 kts | 114° |
| 2026-05-06 18:08 | 42.05427 | -83.55896 | 3854 ft | 240 kts | 113° |
| 2026-05-06 18:08 | 42.04793 | -83.53833 | 3542 ft | 237 kts | 109° |
| 2026-05-06 18:08 | 42.04560 | -83.51672 | 3206 ft | 234 kts | 78° |
| 2026-05-06 18:08 | 42.05305 | -83.49829 | 3001 ft | 223 kts | 37° |
| 2026-05-06 18:09 | 42.06545 | -83.48661 | 2985 ft | 216 kts | 31° |
| 2026-05-06 18:09 | 42.07788 | -83.47555 | 3003 ft | 215 kts | 27° |
| 2026-05-06 18:09 | 42.09112 | -83.46590 | 3000 ft | 218 kts | 25° |
| 2026-05-06 18:09 | 42.10453 | -83.45617 | 2879 ft | 221 kts | 26° |
| 2026-05-06 18:10 | 42.11792 | -83.44629 | 2590 ft | 216 kts | 26° |
| 2026-05-06 18:10 | 42.13077 | -83.43679 | 2340 ft | 206 kts | 26° |
| 2026-05-06 18:10 | 42.14292 | -83.42778 | 2094 ft | 191 kts | 25° |
| 2026-05-06 18:10 | 42.15412 | -83.41950 | 1792 ft | 176 kts | 25° |
| 2026-05-06 18:11 | 42.16442 | -83.41188 | 1561 ft | 162 kts | 25° |
| 2026-05-06 18:11 | 42.17388 | -83.40490 | 1354 ft | 146 kts | 22° |
| 2026-05-06 18:11 | 42.18242 | -83.39859 | 1130 ft | 132 kts | 24° |
| 2026-05-06 18:11 | 42.19017 | -83.39290 | 971 ft | 125 kts | 23° |
| 2026-05-06 18:12 | 42.19797 | -83.38711 | 787 ft | 131 kts | 24° |
| 2026-05-06 18:12 | 42.20585 | -83.38127 | 652 ft | 123 kts | 22° |
| 2026-05-06 18:12 | 42.21231 | -83.37667 | 651 ft | 80 kts | 29° |
| 2026-05-06 18:12 | 42.21598 | -83.37391 | 646 ft | 47 kts | 30° |
| 2026-05-06 18:13 | 42.21766 | -83.37226 | 646 ft | 21 kts | 47° |
| 2026-05-06 18:13 | 42.21828 | -83.37054 | 649 ft | 20 kts | 70° |
| 2026-05-06 18:13 | 42.21908 | -83.36908 | 649 ft | 20 kts | 32° |
| 2026-05-06 18:13 | 42.22018 | -83.36810 | 650 ft | 18 kts | 52° |
| 2026-05-06 18:14 | 42.21990 | -83.36655 | 648 ft | 18 kts | 120° |
| 2026-05-06 18:14 | 42.21931 | -83.36512 | 648 ft | 17 kts | 119° |
| 2026-05-06 18:14 | 42.21875 | -83.36375 | 649 ft | 16 kts | 118° |
| 2026-05-06 18:14 | 42.21823 | -83.36240 | 648 ft | 16 kts | 113° |
| 2026-05-06 18:15 | 42.21811 | -83.36097 | 648 ft | 15 kts | 88° |
| 2026-05-06 18:15 | 42.21814 | -83.35958 | 647 ft | 15 kts | 88° |
| 2026-05-06 18:15 | 42.21821 | -83.35820 | 646 ft | 15 kts | 76° |
| 2026-05-06 18:15 | 42.21894 | -83.35735 | 648 ft | 14 kts | 27° |
| 2026-05-06 18:16 | 42.21978 | -83.35676 | 647 ft | 13 kts | 29° |
| 2026-05-06 18:16 | 42.22058 | -83.35617 | 647 ft | 13 kts | 29° |
| 2026-05-06 18:16 | 42.22147 | -83.35550 | 650 ft | 16 kts | 29° |
| 2026-05-06 18:16 | 42.22247 | -83.35476 | 649 ft | 16 kts | 28° |
| 2026-05-06 18:17 | 42.22342 | -83.35405 | 649 ft | 15 kts | 36° |
| 2026-05-06 18:17 | 42.22365 | -83.35278 | 649 ft | 14 kts | 77° |
| 2026-05-06 18:17 | 42.22417 | -83.35169 | 651 ft | 14 kts | 53° |
| 2026-05-06 18:17 | 42.22485 | -83.35085 | 648 ft | 13 kts | 32° |
| 2026-05-06 18:18 | 42.22555 | -83.35029 | 649 ft | 8 kts | 45° |
| 2026-05-06 18:18 | 42.22561 | -83.34964 | 648 ft | 7 kts | 113° |
| 2026-05-06 18:18 | 42.22550 | -83.34934 | 650 ft | 0 kts | 117° |